Time;durP1;ratioP1;P1;durP2;ratioP2;P2;SDS_P1;SDS_P2;PMS_P1;PMS_P2;Temp;Humidity;BMP_temperature;BMP_pressure;BME280_temperature;BME280_humidity;BME280_pressure;Samples;Min_cycle;Max_cycle;Signal;HPM_P1;HPM_P2
2022/08/31 00:05:57;;;;;;;1.55;0.45;;;;;;;24.15;45.85;102205.00;5055613;28;20037;-42
2022/08/31 00:08:23;;;;;;;0.40;0.20;;;;;;;24.14;45.80;102209.59;5061226;28;20032;-43
2022/08/31 00:10:48;;;;;;;0.50;0.30;;;;;;;24.15;45.85;102210.44;5066426;28;20410;-42
2022/08/31 00:13:14;;;;;;;0.32;0.30;;;;;;;24.14;45.85;102211.47;5052964;28;20025;-44
2022/08/31 00:15:39;;;;;;;0.40;0.30;;;;;;;24.10;45.89;102213.66;5065221;28;20021;-42
2022/08/31 00:18:04;;;;;;;0.63;0.30;;;;;;;24.12;45.82;102210.75;5054262;28;20108;-42
2022/08/31 00:20:30;;;;;;;0.73;0.50;;;;;;;24.12;46.01;102216.19;5062458;28;20017;-44
2022/08/31 00:22:56;;;;;;;0.30;0.30;;;;;;;24.10;45.83;102213.66;5064452;28;20025;-42
2022/08/31 00:25:21;;;;;;;0.43;0.30;;;;;;;24.10;45.75;102219.09;5064537;28;20041;-43
2022/08/31 00:27:46;;;;;;;0.43;0.30;;;;;;;24.05;45.63;102205.19;5052725;28;20084;-42
2022/08/31 00:30:12;;;;;;;0.43;0.30;;;;;;;24.08;45.95;102210.25;5052640;28;20116;-41
2022/08/31 00:32:37;;;;;;;0.38;0.30;;;;;;;24.05;45.65;102207.91;5046190;28;20024;-42
2022/08/31 00:35:04;;;;;;;0.30;0.30;;;;;;;24.08;45.83;102210.25;5065325;28;20036;-42
2022/08/31 00:37:30;;;;;;;0.38;0.30;;;;;;;24.07;45.79;102208.56;5065704;28;20028;-44
2022/08/31 00:39:55;;;;;;;0.50;0.32;;;;;;;24.06;45.85;102204.16;5064413;28;20036;-44
2022/08/31 00:42:22;;;;;;;0.30;0.30;;;;;;;24.05;45.88;102201.63;5065240;28;20029;-43
2022/08/31 00:44:47;;;;;;;1.02;0.40;;;;;;;24.06;45.69;102206.03;5065649;28;20038;-43
2022/08/31 00:47:12;;;;;;;0.80;0.30;;;;;;;24.05;45.88;102207.91;5065024;28;20041;-43
2022/08/31 00:49:39;;;;;;;0.30;0.30;;;;;;;24.05;45.75;102202.47;5063404;28;20016;-44
2022/08/31 00:52:14;;;;;;;0.55;0.30;;;;;;;24.04;45.96;102203.47;5065203;28;20048;-42
2022/08/31 00:54:48;;;;;;;0.95;0.32;;;;;;;24.02;45.88;102208.25;5063758;28;20374;-44
2022/08/31 00:57:14;;;;;;;0.50;0.30;;;;;;;23.98;45.66;102200.59;5052778;28;20045;-45
2022/08/31 00:59:41;;;;;;;1.25;0.43;;;;;;;24.00;45.99;102204.84;5058299;28;20502;-43
2022/08/31 01:02:07;;;;;;;0.40;0.30;;;;;;;24.00;45.98;102203.97;5051285;28;20085;-43
2022/08/31 01:04:33;;;;;;;0.52;0.40;;;;;;;23.99;45.76;102211.28;5064731;28;20035;-46
2022/08/31 01:06:58;;;;;;;0.47;0.30;;;;;;;23.98;45.90;102214.19;5064077;28;20032;-42
2022/08/31 01:09:26;;;;;;;0.30;0.20;;;;;;;23.97;45.92;102212.50;5065163;28;20029;-44
2022/08/31 01:11:51;;;;;;;0.20;0.20;;;;;;;23.96;45.72;102208.94;5062864;28;20024;-46
2022/08/31 01:14:16;;;;;;;0.50;0.32;;;;;;;23.95;45.80;102213.50;5051527;28;20017;-42
2022/08/31 01:16:52;;;;;;;0.93;0.40;;;;;;;23.89;45.81;102200.59;5049811;28;20021;-42
2022/08/31 01:19:29;;;;;;;0.30;0.20;;;;;;;23.95;45.77;102212.66;5049934;28;20017;-41
2022/08/31 01:22:09;;;;;;;0.30;0.28;;;;;;;23.93;45.69;102211.97;5064261;28;20131;-42
2022/08/31 01:24:36;;;;;;;0.30;0.30;;;;;;;23.93;45.99;102209.25;5053914;28;20374;-41
2022/08/31 01:27:03;;;;;;;0.40;0.30;;;;;;;23.91;45.74;102214.84;5063944;28;20029;-41
2022/08/31 01:29:32;;;;;;;0.57;0.30;;;;;;;23.90;45.92;102207.72;5051490;28;20024;-43
2022/08/31 01:31:57;;;;;;;0.70;0.25;;;;;;;23.90;45.85;102213.16;5057472;28;20494;-42
2022/08/31 01:34:23;;;;;;;0.30;0.20;;;;;;;23.86;45.83;102213.66;5059039;28;20037;-41
2022/08/31 01:36:49;;;;;;;0.30;0.25;;;;;;;23.88;45.95;102214.38;5056062;28;20035;-41
2022/08/31 01:39:15;;;;;;;0.30;0.30;;;;;;;23.87;45.82;102218.97;5062053;28;20044;-41
2022/08/31 01:41:42;;;;;;;0.43;0.30;;;;;;;23.83;45.73;102208.56;5059532;28;20028;-41
2022/08/31 01:44:10;;;;;;;0.40;0.30;;;;;;;23.86;46.02;102210.97;5044615;28;20025;-42
2022/08/31 01:46:36;;;;;;;0.52;0.30;;;;;;;23.85;45.97;102220.97;5051661;28;20117;-42
2022/08/31 01:49:01;;;;;;;0.40;0.30;;;;;;;23.84;45.98;102222.00;5055566;28;20028;-43
2022/08/31 01:51:26;;;;;;;0.60;0.30;;;;;;;23.84;45.84;102213.00;5064109;28;20111;-42
2022/08/31 01:53:52;;;;;;;0.55;0.40;;;;;;;23.83;45.93;102219.44;5064046;28;20035;-41
2022/08/31 01:56:30;;;;;;;0.40;0.30;;;;;;;23.83;45.85;102227.59;5049697;28;20136;-42
2022/08/31 01:58:56;;;;;;;0.40;0.30;;;;;;;23.82;46.05;102217.75;5054660;28;20033;-42
2022/08/31 02:01:25;;;;;;;0.68;0.35;;;;;;;23.82;46.03;102217.75;5056569;28;20025;-50
2022/08/31 02:03:50;;;;;;;0.50;0.30;;;;;;;23.80;45.87;102220.66;5060249;28;20028;-43
2022/08/31 02:06:16;;;;;;;0.65;0.40;;;;;;;23.80;45.80;102211.66;5064319;28;20029;-44
2022/08/31 02:08:41;;;;;;;0.40;0.20;;;;;;;23.79;45.89;102216.25;5050626;28;20048;-47
2022/08/31 02:11:06;;;;;;;0.50;0.30;;;;;;;23.79;45.74;102218.06;5064051;28;20039;-42
2022/08/31 02:13:33;;;;;;;0.70;0.30;;;;;;;23.78;45.70;102217.22;5063629;28;20021;-44
2022/08/31 02:15:58;;;;;;;0.55;0.32;;;;;;;23.77;45.63;102211.97;5063837;28;20025;-46
2022/08/31 02:18:24;;;;;;;0.50;0.30;;;;;;;23.78;45.95;102216.38;5062843;28;20496;-46
2022/08/31 02:20:49;;;;;;;0.30;0.30;;;;;;;23.76;45.96;102208.41;5063654;28;20029;-49
2022/08/31 02:23:14;;;;;;;0.65;0.30;;;;;;;23.75;45.79;102208.59;5063684;28;20035;-44
2022/08/31 02:25:39;;;;;;;0.38;0.30;;;;;;;23.74;45.86;102212.31;5063876;28;20021;-46
2022/08/31 02:28:05;;;;;;;0.57;0.40;;;;;;;23.69;45.88;102202.81;5063117;28;20029;-43
2022/08/31 02:30:30;;;;;;;0.60;0.40;;;;;;;23.73;45.86;102207.91;5063545;28;20028;-41
2022/08/31 02:32:55;;;;;;;0.40;0.30;;;;;;;23.72;45.64;102207.06;5063234;28;20031;-42
2022/08/31 02:35:20;;;;;;;0.50;0.35;;;;;;;23.66;45.87;102197.72;5049012;28;20029;-42
2022/08/31 02:37:47;;;;;;;0.40;0.30;;;;;;;23.69;45.66;102201.97;5056977;28;20675;-42
2022/08/31 02:40:12;;;;;;;0.60;0.30;;;;;;;23.71;45.65;102208.09;5056546;28;20025;-42
2022/08/31 02:42:37;;;;;;;0.73;0.47;;;;;;;23.68;45.73;102208.41;5049069;28;20085;-40
2022/08/31 02:45:04;;;;;;;0.35;0.20;;;;;;;23.64;45.91;102207.03;5052484;28;20087;-42
2022/08/31 02:47:30;;;;;;;0.70;0.60;;;;;;;23.67;45.71;102210.28;5046043;28;20112;-41
2022/08/31 02:49:56;;;;;;;0.50;0.40;;;;;;;23.66;45.62;102214.03;5053722;28;20021;-41
2022/08/31 02:52:21;;;;;;;0.63;0.30;;;;;;;23.66;45.65;102219.47;5057124;28;20056;-41
2022/08/31 02:54:46;;;;;;;0.55;0.40;;;;;;;23.57;45.84;102201.41;5057531;28;20078;-41
2022/08/31 02:57:11;;;;;;;0.52;0.30;;;;;;;23.65;45.74;102214.16;5054768;28;20056;-41
2022/08/31 02:59:37;;;;;;;0.30;0.30;;;;;;;23.60;45.92;102211.94;5049195;28;20089;-42
2022/08/31 03:02:02;;;;;;;0.30;0.30;;;;;;;23.59;45.73;102212.97;5052678;28;20389;-42
2022/08/31 03:04:28;;;;;;;0.40;0.28;;;;;;;23.64;45.70;102217.88;5060522;28;20028;-43
2022/08/31 03:06:54;;;;;;;0.50;0.40;;;;;;;23.63;45.84;102221.63;5049977;28;20025;-43
2022/08/31 03:09:19;;;;;;;0.22;0.20;;;;;;;23.61;45.90;102220.94;5049735;28;20047;-43
2022/08/31 03:11:44;;;;;;;0.38;0.35;;;;;;;23.58;45.72;102213.97;5050731;28;20028;-42
2022/08/31 03:14:09;;;;;;;0.30;0.30;;;;;;;23.60;45.64;102217.38;5051529;28;20056;-41
2022/08/31 03:16:38;;;;;;;0.52;0.30;;;;;;;23.58;45.80;102216.69;5057228;28;20025;-45
2022/08/31 03:19:03;;;;;;;0.20;0.20;;;;;;;23.58;45.75;102216.69;5052103;28;20078;-41
2022/08/31 03:21:28;;;;;;;0.22;0.22;;;;;;;23.57;45.74;102217.69;5048738;28;20124;-44
2022/08/31 03:23:53;;;;;;;0.38;0.30;;;;;;;23.57;45.78;102216.84;5063137;28;20039;-42
2022/08/31 03:26:19;;;;;;;0.43;0.30;;;;;;;23.56;45.81;102215.16;5061620;28;20044;-44
2022/08/31 03:28:44;;;;;;;0.38;0.30;;;;;;;23.54;45.52;102215.34;5063040;28;20047;-46
2022/08/31 03:31:09;;;;;;;0.30;0.20;;;;;;;23.55;45.58;102221.63;5062802;28;20017;-42
2022/08/31 03:33:35;;;;;;;0.45;0.40;;;;;;;23.50;45.61;102203.13;5061704;28;20029;-43
2022/08/31 03:36:02;;;;;;;0.50;0.30;;;;;;;23.54;45.75;102220.75;5063457;28;20076;-43
2022/08/31 03:38:27;;;;;;;0.30;0.30;;;;;;;23.54;45.56;102219.91;5061709;28;20037;-42
2022/08/31 03:40:53;;;;;;;0.30;0.30;;;;;;;23.52;45.54;102216.50;5066032;28;20033;-45
2022/08/31 03:43:20;;;;;;;0.60;0.40;;;;;;;23.45;45.93;102219.06;5065274;28;20024;-44
2022/08/31 03:45:46;;;;;;;0.30;0.30;;;;;;;23.50;45.84;102224.84;5065391;28;20458;-43
2022/08/31 03:48:11;;;;;;;0.25;0.22;;;;;;;23.50;45.71;102232.13;5066182;28;20036;-44
2022/08/31 03:50:36;;;;;;;0.50;0.40;;;;;;;23.49;45.73;102225.84;5065960;28;20032;-41
2022/08/31 03:53:03;;;;;;;0.35;0.35;;;;;;;23.49;45.87;102227.69;5066410;28;20049;-42
2022/08/31 03:55:30;;;;;;;0.43;0.30;;;;;;;23.30;45.67;102196.28;5066839;28;20029;-42
2022/08/31 03:57:55;;;;;;;0.50;0.40;;;;;;;23.47;45.77;102230.59;5064860;28;20043;-42
2022/08/31 04:00:21;;;;;;;0.38;0.30;;;;;;;23.45;45.57;102229.91;5056625;28;20083;-43
2022/08/31 04:02:47;;;;;;;0.30;0.28;;;;;;;23.38;45.45;102221.56;5058806;28;20025;-46
2022/08/31 04:05:13;;;;;;;0.43;0.32;;;;;;;23.39;45.65;102225.13;5065889;28;20688;-42
2022/08/31 04:07:38;;;;;;;0.25;0.25;;;;;;;23.44;45.61;102236.34;5052951;28;20049;-45
2022/08/31 04:10:04;;;;;;;0.45;0.40;;;;;;;23.42;45.72;102230.25;5063769;28;20017;-42
2022/08/31 04:12:29;;;;;;;0.40;0.28;;;;;;;23.41;45.62;102232.13;5065227;28;20064;-42
2022/08/31 04:14:55;;;;;;;0.40;0.30;;;;;;;23.42;45.70;102236.50;5066045;28;20044;-43
2022/08/31 04:17:20;;;;;;;0.20;0.20;;;;;;;23.42;45.73;102236.50;5065257;28;20021;-45
2022/08/31 04:19:46;;;;;;;0.35;0.30;;;;;;;23.34;45.78;102220.22;5063851;28;20043;-42
2022/08/31 04:22:11;;;;;;;0.30;0.28;;;;;;;23.41;45.72;102236.69;5063937;28;20025;-43
2022/08/31 04:24:36;;;;;;;0.75;0.40;;;;;;;23.38;45.54;102240.56;5065521;28;20056;-42
2022/08/31 04:27:01;;;;;;;0.20;0.20;;;;;;;23.39;45.67;102242.28;5065512;28;20021;-42
2022/08/31 04:29:27;;;;;;;0.75;0.50;;;;;;;23.39;45.57;102234.13;5064236;28;20037;-42
2022/08/31 04:31:52;;;;;;;0.50;0.38;;;;;;;23.38;45.77;102242.44;5059444;28;20036;-42
2022/08/31 04:34:17;;;;;;;0.30;0.30;;;;;;;23.34;45.62;102227.50;5061408;28;20036;-43
2022/08/31 04:36:46;;;;;;;0.30;0.22;;;;;;;23.37;45.48;102247.03;5065583;28;20048;-43
2022/08/31 04:39:11;;;;;;;0.60;0.30;;;;;;;23.37;45.65;102247.03;5065420;28;20025;-43
2022/08/31 04:41:38;;;;;;;0.30;0.20;;;;;;;23.37;45.71;102248.91;5064963;28;20048;-42
2022/08/31 04:44:04;;;;;;;0.45;0.30;;;;;;;23.32;45.73;102241.25;5064016;28;20024;-41
2022/08/31 04:46:30;;;;;;;0.47;0.40;;;;;;;23.36;45.78;102242.63;5065351;28;20409;-43
2022/08/31 04:48:56;;;;;;;0.32;0.30;;;;;;;23.37;45.60;102248.91;5064256;28;20043;-45
2022/08/31 04:51:27;;;;;;;0.30;0.30;;;;;;;23.37;45.73;102251.63;5063017;28;20013;-43
2022/08/31 04:53:53;;;;;;;0.30;0.30;;;;;;;23.37;45.47;102248.91;5065509;28;20024;-41
2022/08/31 04:56:22;;;;;;;0.55;0.40;;;;;;;23.37;45.79;102254.31;5065039;28;20048;-42
2022/08/31 04:58:59;;;;;;;0.57;0.40;;;;;;;23.36;45.60;102260.75;5065230;28;20021;-43
2022/08/31 05:01:26;;;;;;;0.57;0.40;;;;;;;23.35;45.60;102259.06;5063643;28;20025;-43
2022/08/31 05:03:54;;;;;;;0.52;0.40;;;;;;;23.34;45.78;102254.66;5063172;28;20055;-45
2022/08/31 05:06:24;;;;;;;0.73;0.40;;;;;;;23.32;45.74;102260.25;5060113;28;20035;-43
2022/08/31 05:08:55;;;;;;;0.60;0.40;;;;;;;23.27;45.77;102250.88;5064719;28;20084;-41
2022/08/31 05:11:21;;;;;;;0.30;0.30;;;;;;;23.31;45.65;102258.53;5063629;28;20021;-42
2022/08/31 05:13:47;;;;;;;0.38;0.30;;;;;;;23.30;45.75;102254.13;5078136;28;20036;-43
2022/08/31 05:16:14;;;;;;;0.47;0.30;;;;;;;23.26;45.54;102251.91;5064492;28;20061;-42
2022/08/31 05:18:41;;;;;;;0.40;0.30;;;;;;;23.30;45.62;102256.84;5060772;28;20549;-42
2022/08/31 05:21:14;;;;;;;0.30;0.30;;;;;;;23.26;45.61;102252.75;5064116;28;20025;-44
2022/08/31 05:23:40;;;;;;;0.38;0.30;;;;;;;23.29;45.59;102255.16;5064438;28;20021;-42
2022/08/31 05:26:06;;;;;;;0.30;0.30;;;;;;;23.25;45.64;102253.78;5063042;28;20068;-44
2022/08/31 05:28:35;;;;;;;0.32;0.20;;;;;;;23.28;45.88;102258.88;5064299;28;20025;-44
2022/08/31 05:31:00;;;;;;;0.30;0.30;;;;;;;23.21;45.73;102249.69;5062910;28;20020;-44
2022/08/31 05:33:28;;;;;;;0.32;0.30;;;;;;;23.28;45.59;102261.59;5063323;28;20029;-41
2022/08/31 05:35:54;;;;;;;0.40;0.33;;;;;;;23.27;45.72;102262.59;5061651;28;20088;-54
2022/08/31 05:38:19;;;;;;;0.73;0.30;;;;;;;23.22;45.97;102255.97;5064274;28;20108;-41
2022/08/31 05:40:52;;;;;;;0.40;0.30;;;;;;;23.29;45.99;102257.88;5057420;28;20033;-47
2022/08/31 05:43:17;;;;;;;0.77;0.45;;;;;;;23.29;45.93;102266.00;5057394;28;20578;-42
2022/08/31 05:45:42;;;;;;;0.50;0.40;;;;;;;23.30;45.88;102264.97;5054162;28;20026;-45
2022/08/31 05:48:07;;;;;;;0.30;0.30;;;;;;;23.31;45.83;102265.81;5056679;28;20052;-41
2022/08/31 05:50:35;;;;;;;0.43;0.43;;;;;;;23.30;46.02;102256.84;5055504;28;20025;-42
2022/08/31 05:53:01;;;;;;;1.02;0.40;;;;;;;23.31;45.75;102263.13;5050195;28;20027;-44
2022/08/31 05:55:27;;;;;;;0.85;0.47;;;;;;;23.30;45.89;102266.84;5056247;28;20468;-42
2022/08/31 05:57:52;;;;;;;0.30;0.30;;;;;;;23.30;45.73;102264.97;5063650;28;20056;-43
2022/08/31 06:00:17;;;;;;;0.63;0.40;;;;;;;23.29;45.97;102260.56;5063480;28;20021;-43
2022/08/31 06:02:43;;;;;;;0.45;0.30;;;;;;;23.28;46.12;102268.84;5062396;28;20123;-46
2022/08/31 06:05:08;;;;;;;0.40;0.30;;;;;;;23.27;45.82;102262.59;5062903;28;20025;-41
2022/08/31 06:07:33;;;;;;;1.00;0.40;;;;;;;23.28;45.91;102275.16;5063763;28;20035;-44
2022/08/31 06:10:00;;;;;;;0.22;0.22;;;;;;;23.27;46.00;102269.88;5063607;28;20028;-41
2022/08/31 06:12:25;;;;;;;0.50;0.40;;;;;;;23.26;45.88;102271.75;5063311;28;20060;-46
2022/08/31 06:14:52;;;;;;;1.13;0.40;;;;;;;23.26;45.82;102273.63;5058039;28;20059;-43
2022/08/31 06:17:17;;;;;;;0.80;0.40;;;;;;;23.24;45.56;102272.94;5057039;28;20031;-41
2022/08/31 06:19:42;;;;;;;0.38;0.30;;;;;;;23.22;45.85;102270.38;5063156;28;20041;-42
2022/08/31 06:22:07;;;;;;;0.45;0.30;;;;;;;23.23;45.68;102282.06;5063293;28;20024;-43
2022/08/31 06:24:33;;;;;;;0.35;0.30;;;;;;;23.21;45.73;102282.25;5062467;28;20021;-44
2022/08/31 06:26:58;;;;;;;0.75;0.40;;;;;;;23.20;45.54;102278.69;5063028;28;20052;-44
2022/08/31 06:29:25;;;;;;;0.80;0.40;;;;;;;23.19;45.93;102277.00;5063832;28;20028;-44
2022/08/31 06:31:50;;;;;;;0.35;0.30;;;;;;;23.14;45.61;102276.63;5063080;28;20035;-44
2022/08/31 06:34:17;;;;;;;0.30;0.20;;;;;;;23.18;45.72;102277.16;5062421;28;20021;-44
2022/08/31 06:36:42;;;;;;;0.70;0.40;;;;;;;23.17;45.81;102294.44;5063802;28;20025;-42
2022/08/31 06:39:07;;;;;;;0.57;0.40;;;;;;;23.16;45.96;102292.75;5063454;28;20100;-41
2022/08/31 06:41:35;;;;;;;0.30;0.30;;;;;;;23.14;45.76;102292.06;5055579;28;20024;-41
2022/08/31 06:44:02;;;;;;;0.73;0.35;;;;;;;23.14;45.89;102289.34;5049619;28;20017;-45
2022/08/31 06:46:28;;;;;;;0.52;0.40;;;;;;;23.13;45.74;102295.78;5056888;28;20032;-42
2022/08/31 06:48:57;;;;;;;0.75;0.30;;;;;;;23.13;45.54;102296.63;5047254;28;20033;-41
2022/08/31 06:51:23;;;;;;;0.52;0.20;;;;;;;23.11;45.73;102293.25;5057391;28;20055;-43
2022/08/31 06:53:49;;;;;;;0.70;0.30;;;;;;;23.11;45.91;102295.13;5055207;28;20036;-44
2022/08/31 06:56:17;;;;;;;0.32;0.22;;;;;;;23.10;45.63;102296.94;5062735;28;20033;-42
2022/08/31 06:58:43;;;;;;;0.20;0.20;;;;;;;23.10;45.81;102298.81;5062982;28;20025;-44
2022/08/31 07:01:20;;;;;;;1.30;0.30;;;;;;;23.10;45.58;102296.09;5062894;28;20035;-43
2022/08/31 07:03:47;;;;;;;0.73;0.40;;;;;;;23.08;45.73;102299.00;5061860;28;20063;-41
2022/08/31 07:06:19;;;;;;;0.60;0.30;;;;;;;23.05;45.82;102296.59;5061186;28;20017;-43
2022/08/31 07:08:45;;;;;;;0.35;0.20;;;;;;;23.06;45.72;102298.28;5052041;28;20032;-42
2022/08/31 07:11:13;;;;;;;0.30;0.30;;;;;;;23.07;45.69;102304.59;5059945;28;20021;-42
2022/08/31 07:13:39;;;;;;;0.70;0.70;;;;;;;23.07;45.71;102301.88;5049705;28;20067;-43
2022/08/31 07:16:07;;;;;;;0.98;0.50;;;;;;;23.07;45.76;102315.44;5062568;28;20064;-43
2022/08/31 07:18:32;;;;;;;0.27;0.27;;;;;;;23.06;45.53;102311.00;5048496;28;20040;-42
2022/08/31 07:21:20;;;;;;;0.25;0.25;;;;;;;23.05;45.47;102312.88;5051362;28;20044;-42
2022/08/31 07:23:47;;;;;;;0.40;0.32;;;;;;;23.03;45.43;102317.63;5048372;28;20048;-42
2022/08/31 07:26:20;;;;;;;0.55;0.30;;;;;;;23.03;45.77;102314.91;5061580;28;20025;-43
2022/08/31 07:28:52;;;;;;;0.35;0.30;;;;;;;23.03;45.51;102323.03;5048939;28;20155;-42
2022/08/31 07:31:21;;;;;;;0.75;0.32;;;;;;;23.03;45.83;102322.19;5062739;28;20017;-43
2022/08/31 07:33:47;;;;;;;0.35;0.30;;;;;;;22.95;45.57;102306.72;5056651;28;20017;-45
2022/08/31 07:36:13;;;;;;;0.45;0.45;;;;;;;22.87;45.51;102304.78;5054029;28;20089;-42
2022/08/31 07:44:10;;;;;;;0.35;0.30;;;;;;;23.00;45.57;102317.09;5062422;28;20039;-44
2022/08/31 07:46:35;;;;;;;0.50;0.30;;;;;;;22.95;45.76;102310.28;5062792;28;20029;-43
2022/08/31 07:49:01;;;;;;;0.63;0.30;;;;;;;23.00;45.59;102317.94;5061315;28;20036;-44
2022/08/31 07:51:26;;;;;;;0.32;0.30;;;;;;;23.01;45.65;102322.34;5062604;28;20018;-42
2022/08/31 07:53:52;;;;;;;0.82;0.40;;;;;;;22.97;45.62;102320.97;5062366;28;20043;-43
2022/08/31 07:56:19;;;;;;;0.25;0.25;;;;;;;23.00;45.57;102319.81;5062695;28;20044;-46
2022/08/31 07:58:48;;;;;;;0.40;0.30;;;;;;;22.99;45.48;102320.81;5062525;28;20039;-47
2022/08/31 08:01:17;;;;;;;0.35;0.30;;;;;;;22.98;45.62;102322.69;5059253;28;20494;-45
2022/08/31 08:03:43;;;;;;;0.40;0.40;;;;;;;22.99;45.80;102326.25;5054574;28;20032;-44
2022/08/31 08:06:14;;;;;;;0.40;0.30;;;;;;;23.00;45.67;102333.38;5060966;28;20032;-43
2022/08/31 08:08:43;;;;;;;0.95;0.22;;;;;;;22.99;45.43;102337.94;5050864;28;20056;-47
2022/08/31 08:11:14;;;;;;;0.68;0.68;;;;;;;23.00;45.53;102338.78;5059594;28;20078;-45
2022/08/31 08:13:40;;;;;;;0.20;0.20;;;;;;;22.98;45.55;102344.38;5049375;28;20101;-45
2022/08/31 08:16:05;;;;;;;0.32;0.30;;;;;;;22.99;45.45;102345.25;5062575;28;20029;-42
2022/08/31 08:18:30;;;;;;;0.35;0.30;;;;;;;22.98;45.68;102347.09;5047695;28;20083;-41
2022/08/31 08:20:55;;;;;;;0.40;0.30;;;;;;;22.99;45.48;102343.38;5050776;28;20068;-43
2022/08/31 08:23:21;;;;;;;0.85;0.30;;;;;;;22.90;45.42;102330.78;5056502;28;20081;-42
2022/08/31 08:25:46;;;;;;;0.20;0.20;;;;;;;22.99;45.32;102345.25;5056930;28;20159;-42
2022/08/31 08:28:20;;;;;;;0.28;0.28;;;;;;;22.98;45.27;102346.22;5064725;28;20090;-41
2022/08/31 08:30:53;;;;;;;0.38;0.30;;;;;;;22.99;45.37;102350.66;5053450;28;20470;-44
2022/08/31 08:33:19;;;;;;;0.43;0.40;;;;;;;22.98;45.58;102352.53;5051231;28;20029;-42
2022/08/31 08:35:44;;;;;;;0.40;0.30;;;;;;;22.99;45.54;102342.53;5056692;28;20033;-42
2022/08/31 08:38:10;;;;;;;0.88;0.30;;;;;;;22.99;45.69;102346.09;5058837;28;20045;-42
2022/08/31 08:40:41;;;;;;;0.30;0.30;;;;;;;22.98;45.38;102344.38;5051625;28;20117;-43
2022/08/31 08:43:11;;;;;;;0.28;0.25;;;;;;;22.99;45.33;102345.25;5053542;28;20025;-43
2022/08/31 08:45:36;;;;;;;0.40;0.40;;;;;;;22.94;45.53;102341.16;5058913;28;20021;-42
2022/08/31 08:48:08;;;;;;;0.75;0.35;;;;;;;23.00;45.46;102347.78;5057659;28;20017;-43
2022/08/31 08:50:35;;;;;;;0.30;0.30;;;;;;;22.99;45.33;102342.53;5057167;28;20017;-44
2022/08/31 08:53:03;;;;;;;0.20;0.20;;;;;;;23.01;45.69;102345.91;5050005;28;20017;-45
2022/08/31 08:55:34;;;;;;;1.00;0.30;;;;;;;23.01;45.49;102338.63;5064121;28;20035;-41
2022/08/31 08:58:01;;;;;;;0.35;0.30;;;;;;;23.03;45.43;102341.19;5063769;28;20060;-44
2022/08/31 09:00:27;;;;;;;0.40;0.30;;;;;;;23.02;45.62;102342.19;5054559;28;20025;-42
2022/08/31 09:03:14;;;;;;;0.40;0.25;;;;;;;23.04;45.35;102343.72;5061093;28;20025;-42
2022/08/31 09:06:08;;;;;;;1.55;0.30;;;;;;;23.05;45.39;102345.41;5064731;28;20025;-43
2022/08/31 09:08:33;;;;;;;0.35;0.30;;;;;;;23.04;45.59;102332.03;5065558;28;20064;-45
2022/08/31 09:11:21;;;;;;;0.30;0.20;;;;;;;23.07;45.27;102345.28;5065024;28;20086;-44
2022/08/31 09:14:09;;;;;;;0.65;0.50;;;;;;;23.07;45.50;102338.00;5051830;28;20035;-43
2022/08/31 09:16:37;;;;;;;;;;;;;;;23.04;45.25;102337.47;5048247;28;20036;-41
2022/08/31 09:19:13;;;;;;;0.40;0.30;;;;;;;23.06;45.52;102346.28;5064065;28;19927;-45
2022/08/31 09:21:42;;;;;;;0.38;0.20;;;;;;;23.07;45.52;102337.16;5065011;28;20021;-43
2022/08/31 09:24:07;;;;;;;0.70;0.30;;;;;;;23.08;45.55;102346.97;5058573;28;20051;-43
2022/08/31 09:26:54;;;;;;;0.82;0.40;;;;;;;23.10;45.27;102342.22;5064737;28;20033;-43
2022/08/31 09:29:23;;;;;;;0.52;0.38;;;;;;;23.05;45.33;102329.16;5065134;28;20362;-44
2022/08/31 09:31:59;;;;;;;0.30;0.30;;;;;;;23.11;45.23;102328.53;5050529;28;20393;-43
2022/08/31 09:34:28;;;;;;;0.40;0.30;;;;;;;23.13;45.34;102329.19;5063617;28;20547;-41
2022/08/31 09:37:14;;;;;;;0.30;0.28;;;;;;;23.15;45.27;102329.00;5064439;28;20050;-43
2022/08/31 09:39:40;;;;;;;0.60;0.30;;;;;;;23.18;45.20;102326.84;5053251;28;20036;-41
2022/08/31 09:42:17;;;;;;;0.20;0.20;;;;;;;23.22;45.29;102319.22;5047632;28;20025;-40
2022/08/31 09:44:46;;;;;;;0.30;0.28;;;;;;;23.24;45.07;102317.22;5046501;28;20082;-43
2022/08/31 09:47:29;;;;;;;0.52;0.30;;;;;;;23.30;44.90;102316.53;5059154;28;20028;-43
2022/08/31 09:49:56;;;;;;;0.45;0.30;;;;;;;23.32;44.94;102327.22;5051941;28;20039;-42
2022/08/31 09:55:20;;;;;;;0.47;0.30;;;;;;;23.38;44.75;102322.00;5063606;28;20135;-41
2022/08/31 09:57:52;;;;;;;1.50;0.38;;;;;;;23.41;44.63;102321.69;5063626;28;20065;-41
2022/08/31 10:00:44;;;;;;;0.60;0.40;;;;;;;23.44;44.63;102317.78;5055256;28;20061;-42
2022/08/31 10:03:19;;;;;;;0.70;0.32;;;;;;;23.43;44.58;102308.78;5051522;28;20044;-40
2022/08/31 10:05:46;;;;;;;0.28;0.25;;;;;;;23.49;44.45;102320.00;5053980;28;20021;-40
2022/08/31 10:08:37;;;;;;;0.68;0.28;;;;;;;23.53;44.43;102316.78;5051254;28;20028;-43
2022/08/31 10:11:11;;;;;;;0.82;0.20;;;;;;;23.55;44.22;102303.91;5055575;28;20029;-41
2022/08/31 10:13:40;;;;;;;0.50;0.20;;;;;;;23.58;44.44;102308.16;5056114;28;20052;-44
2022/08/31 10:16:28;;;;;;;0.47;0.20;;;;;;;23.60;44.57;102306.97;5053253;28;20102;-43
2022/08/31 10:19:08;;;;;;;0.20;0.20;;;;;;;23.65;44.39;102306.50;5057188;28;20021;-45
2022/08/31 10:21:53;;;;;;;0.25;0.20;;;;;;;23.68;44.68;102303.44;5059891;28;20129;-41
2022/08/31 10:24:27;;;;;;;0.38;0.20;;;;;;;23.72;44.56;102298.53;5072866;28;20025;-42
2022/08/31 10:27:03;;;;;;;0.38;0.22;;;;;;;23.75;44.36;102301.78;5063528;28;20382;-47
2022/08/31 10:29:55;;;;;;;0.40;0.30;;;;;;;23.75;44.31;102285.50;5051341;28;20544;-44
2022/08/31 10:32:32;;;;;;;0.30;0.30;;;;;;;23.78;44.42;102296.00;5054171;28;20021;-45
2022/08/31 10:35:06;;;;;;;0.50;0.38;;;;;;;23.80;44.56;102296.69;5062740;28;20051;-42
2022/08/31 10:37:45;;;;;;;0.35;0.20;;;;;;;23.82;44.51;102300.06;5062075;28;20025;-42
2022/08/31 10:40:18;;;;;;;0.40;0.30;;;;;;;23.84;44.35;102300.78;5060976;28;20032;-43
2022/08/31 10:42:49;;;;;;;0.35;0.25;;;;;;;23.86;44.55;102300.59;5053107;28;20124;-45
2022/08/31 10:45:22;;;;;;;0.20;0.20;;;;;;;23.87;44.56;102295.00;5052499;28;20021;-42
2022/08/31 10:47:49;;;;;;;0.30;0.20;;;;;;;23.90;44.59;102301.94;5055801;28;20026;-42
2022/08/31 10:50:47;;;;;;;0.40;0.30;;;;;;;23.92;44.72;102302.66;5059120;28;20096;-45
2022/08/31 10:53:32;;;;;;;0.45;0.30;;;;;;;23.90;44.72;102293.81;5048946;28;20037;-44
2022/08/31 10:56:13;;;;;;;0.40;0.30;;;;;;;23.96;44.75;102295.88;5047635;28;20486;-42
2022/08/31 10:58:55;;;;;;;0.40;0.25;;;;;;;23.98;44.67;102298.41;5057853;28;20433;-42
2022/08/31 11:01:23;;;;;;;0.60;0.30;;;;;;;23.98;44.74;102295.69;5055463;28;20026;-46
2022/08/31 11:04:07;;;;;;;0.65;0.30;;;;;;;24.02;44.94;102299.75;5056174;28;20053;-43
2022/08/31 11:06:55;;;;;;;0.20;0.20;;;;;;;24.03;44.78;102301.47;5057279;28;20029;-42
2022/08/31 11:09:44;;;;;;;0.30;0.20;;;;;;;24.03;44.72;102294.16;5051698;28;20032;-44
2022/08/31 11:12:17;;;;;;;0.40;0.20;;;;;;;24.03;44.69;102277.00;5029397;28;20457;-44
2022/08/31 11:15:09;;;;;;;0.30;0.30;;;;;;;24.07;44.67;102287.34;5060103;28;20088;-47
2022/08/31 11:17:51;;;;;;;0.40;0.30;;;;;;;24.08;44.64;102286.34;5054112;28;20120;-41
2022/08/31 11:20:32;;;;;;;0.50;0.30;;;;;;;24.10;44.72;102288.91;5046978;28;20021;-48
2022/08/31 11:23:29;;;;;;;0.50;0.35;;;;;;;24.12;44.78;102292.28;5048815;28;20036;-44
2022/08/31 11:26:32;;;;;;;0.38;0.30;;;;;;;24.13;44.78;102283.13;5048782;28;20051;-44
2022/08/31 11:29:00;;;;;;;0.40;0.30;;;;;;;24.13;44.64;102283.97;5047853;28;20063;-45
2022/08/31 11:31:29;;;;;;;0.30;0.30;;;;;;;24.13;44.66;102275.84;5062538;28;20023;-46
2022/08/31 11:34:06;;;;;;;0.40;0.30;;;;;;;24.17;44.61;102279.03;5047950;28;20047;-43
2022/08/31 11:36:50;;;;;;;0.60;0.33;;;;;;;24.18;44.64;102292.47;5048461;28;20038;-43
2022/08/31 11:39:38;;;;;;;0.30;0.30;;;;;;;24.20;44.67;102282.25;5054409;28;20036;-46
2022/08/31 11:42:25;;;;;;;0.32;0.30;;;;;;;24.22;44.51;102276.66;5062208;28;20029;-41
2022/08/31 11:45:25;;;;;;;0.40;0.32;;;;;;;24.20;44.66;102273.25;5062649;28;20036;-43
2022/08/31 11:47:53;;;;;;;0.32;0.32;;;;;;;24.18;44.58;102262.56;5051233;28;20412;-45